Forside
METAR-TAF:

METAR-TAF

Lufthavne :

Burlington, Iowa, USA

Breddekreds: 40-46-22N, længdekreds: 091-07-31W, højde: 212 m

Aktuelle vejr

Denne rapport blev lavet for 23 minutter siden, kl. 22:53 UTC
Vind 4 kt fra syd
Temperatur 4°C
Fugtighed 70%
Tryk 1018 hPa
Sigt: 14.5 km
skyfri

METAR: KBRL 162253Z AUTO 19004KT 9SM CLR 04/M01 A3006 RMK AO2 SLP183 T00441006

Tid: 17:16 (23:16 UTC)

Vejrudsigter

Denne rapport blev lavet for 5 timer og 35 minutter siden, kl. 17:41 UTC
Foreløbig gælder fra 16 på 18 UTC til 17 på 18 UTC
Vind 11 kt fra vestnordvest
Sigt: 10 km
Brudte skyer i en højde af 1700 ft
Fra 16 på 1900 UTC
Vind 9 kt fra vestnordvest
Sigt: 10 km
Spredte skyer i en højde af 2000 ft
Fra 17 på 0700 UTC
Vind 4 kt fra varierende retninger
Sigt: 10 km
Overskyet i en højde af 1500 ft
Fra 17 på 1300 UTC
Vind 7 kt fra nordøst
Sigt: 6.4 km
Overskyet i en højde af 800 ft
let sne, dis

TAF: KBRL 161741Z 1618/1718 30011KT P6SM BKN017 FM161900 29009KT P6SM SCT020 FM170700 VRB04KT P6SM OVC015 FM171300 04007KT 4SM -SN BR OVC008

Vejrobservationer og prognoser fra mere end 4000 lufthavne (METAR og TAF).

De gule og røde prikker repræsenterer de meteorologiske stationer.

Flyt musen over at se navnet på stationen.

Så klik over at se vejr observationer og prognoser.

At skifte det kort: Klik på de grønne knapper med et sort kors for at zoome ind; på den grønne knap med en bindestreg for at zoome ud; eller på de grønne pile for tilstødende kort.


METAR-TAF: